Aviation Digital Data Service (ADDS)

Output produced by METARs form (0308 UTC 25 October 2016)
found at http://www.aviationweather.gov/adds/metars/
KBFD 250304Z AUTO 30013G19KT 10SM SCT028 BKN037 OVC044 05/02 A3022 RMK AO2 T00500017
KBFD 250253Z AUTO 29010KT 10SM BKN028 OVC042 05/02 A3021 RMK AO2 SLP239 60000 T00500017 51007
KBFD 250211Z AUTO 29011KT 10SM FEW021 SCT026 OVC043 05/03 A3021 RMK AO2 T00500028
KBFD 250153Z AUTO 29011KT 10SM BKN023 OVC045 05/02 A3020 RMK AO2 RAB20E29 SLP236 P0000 T00500022
KBFD 250148Z AUTO 29010KT 10SM BKN021 OVC047 05/02 A3020 RMK AO2 RAB20E29 P0000
KBFD 250053Z AUTO 28010KT 10SM OVC046 05/02 A3019 RMK AO2 SLP232 T00500022
KBFD 250009Z AUTO 29012KT 10SM SCT018 BKN050 05/02 A3018 RMK AO2 T00500022
KBFD 250000Z AUTO 28010KT 10SM BKN018 BKN050 05/02 A3018 RMK AO2 T00500022
KBFD 242353Z AUTO 28010KT 10SM SCT020 BKN055 05/02 A3018 RMK AO2 SLP229 60000 T00500022 10089 20050 53016
KBFD 242331Z AUTO 30009KT 10SM SCT020 BKN055 05/02 A3017 RMK AO2 T00500022
KBFD 242253Z AUTO 29012G20KT 10SM BKN023 OVC050 06/02 A3016 RMK AO2 SLP220 T00610022
KBFD 242219Z AUTO 28008KT 10SM BKN025 BKN033 BKN050 06/02 A3015 RMK AO2 T00610022
KBFD 242153Z AUTO 29010G19KT 10SM FEW026 BKN042 OVC050 07/02 A3014 RMK AO2 SLP214 T00670022
KBFD 242053Z AUTO 29011G20KT 10SM FEW041 BKN050 07/03 A3013 RMK AO2 PK WND 33026/2000 RAB1959E17 SLP210 P0000 60000 T00720028 53016
KBFD 242024Z AUTO 30012G18KT 10SM SCT026 BKN041 07/02 A3013 RMK AO2 PK WND 33026/2000 RAB1959E17 P0000 T00670022
KBFD 242005Z AUTO 32017G26KT 10SM -RA BKN026 BKN036 OVC050 07/03 A3012 RMK AO2 PK WND 33026/2000 RAB1959 P0000 T00670028
KBFD 241953Z AUTO 30014G21KT 10SM SCT028 BKN036 OVC049 08/02 A3010 RMK AO2 PK WND 28026/1917 SLP200 T00780022
KBFD 241853Z AUTO 28015G25KT 10SM FEW020 FEW028 SCT050 08/03 A3009 RMK AO2 PK WND 31026/1840 RAB1754E15B29E40 SLP195 P0000 T00780028
KBFD 241818Z AUTO 29013G26KT 10SM FEW019 SCT033 BKN045 08/04 A3008 RMK AO2 PK WND 28026/1810 RAB1754E15 P0000 T00780044
KBFD 241802Z AUTO 30013G21KT 10SM -RA SCT018 BKN029 BKN040 07/04 A3009 RMK AO2 RAB1754 P0000 T00720044
KBFD 241753Z AUTO 30016G23KT 10SM SCT019 SCT024 BKN031 07/05 A3008 RMK AO2 PK WND 30028/1723 RAB16E49 SLP192 P0000 60000 T00720050 10100 20061 51009
KBFD 241735Z AUTO 30015G24KT 6SM -RA BR SCT018 BKN028 OVC035 07/04 A3008 RMK AO2 PK WND 30028/1723 RAB16 P0000 T00670044
KBFD 241653Z AUTO 30015G25KT 10SM SCT036 BKN045 BKN055 08/02 A3007 RMK AO2 PK WND 28030/1621 SLP187 T00830017
KBFD 241553Z AUTO 30015G22KT 10SM FEW032 SCT042 OVC050 09/02 A3007 RMK AO2 PK WND 32029/1531 SLP185 T00890022
KBFD 241453Z AUTO 32019G27KT 10SM BKN046 08/02 A3005 RMK AO2 PK WND 33027/1446 SLP180 T00780022 51016
KBFD 241353Z AUTO 30015G23KT 10SM FEW018 FEW028 OVC039 07/04 A3004 RMK AO2 SLP177 T00720039
KBFD 241314Z AUTO 31011KT 10SM FEW015 SCT020 OVC039 07/04 A3003 RMK AO2 T00720044
KBFD 241253Z AUTO 31007KT 10SM SCT017 BKN024 OVC043 07/05 A3003 RMK AO2 SLP173 T00670050
KBFD 241221Z AUTO 31011KT 10SM FEW016 BKN025 OVC043 07/05 A3001 RMK AO2 T00670050
KBFD 241153Z AUTO 31012G20KT 10SM FEW015 SCT020 OVC041 07/05 A3000 RMK AO2 SLP163 60000 70062 T00670050 10078 20067 51023
KBFD 241102Z AUTO 30010KT 10SM SCT015 BKN019 OVC040 07/06 A2998 RMK AO2 T00720056
KBFD 241053Z AUTO 30013G20KT 10SM BKN013 BKN019 OVC040 07/06 A2997 RMK AO2 SLP153 T00720061
KBFD 241030Z AUTO 29008KT 10SM BKN013 BKN021 OVC041 07/06 A2997 RMK AO2 T00720061
KBFD 240953Z AUTO 30008KT 10SM SCT015 BKN027 OVC031 07/06 A2996 RMK AO2 SLP147 T00720061
KBFD 240902Z AUTO 31009KT 10SM SCT013 BKN029 OVC038 08/07 A2994 RMK AO2 T00780067
KBFD 240853Z AUTO 31009KT 10SM FEW011 BKN030 OVC036 07/07 A2993 RMK AO2 SLP135 60000 T00720067 53014
KBFD 240831Z AUTO 31009KT 10SM FEW014 BKN034 OVC060 07/07 A2992 RMK AO2 T00720067
KBFD 240753Z AUTO 30008KT 10SM FEW014 BKN023 OVC032 07/07 A2991 RMK AO2 SLP128 T00720072
KBFD 240751Z AUTO 30006KT 10SM BKN023 BKN032 OVC060 07/07 A2990 RMK AO2
KBFD 240653Z AUTO 31006KT 10SM FEW005 BKN050 OVC120 07/07 A2988 RMK AO2 RAE18 SLP120 P0000 T00720072
KBFD 240644Z AUTO 29005KT 10SM SCT005 BKN075 OVC095 07/07 A2989 RMK AO2 RAE18 P0000 T00720072
KBFD 240553Z AUTO 32005KT 7SM -RA BKN046 OVC075 08/07 A2986 RMK AO2 SLP112 P0009 60062 T00780072 10106 20078 51008
KBFD 240453Z AUTO 33007KT 7SM -RA FEW034 OVC044 08/08 A2986 RMK AO2 RAE35B50 SLP112 P0008 T00780078 401280039
KBFD 240449Z AUTO 33009KT 8SM FEW009 BKN037 OVC049 08/08 A2985 RMK AO2 RAE35 PRESRR P0007
KBFD 240435Z AUTO 35004KT 10SM FEW011 BKN041 OVC065 08/08 A2983 RMK AO2 RAE35 P0006 T00780078
KBFD 240403Z AUTO 34007KT 4SM RA BR SCT007 BKN014 OVC033 08/08 A2984 RMK AO2 P0003 T00830083
KBFD 240353Z AUTO 33007KT 2 1/2SM +RA BR SCT005 BKN014 OVC033 08/08 A2983 RMK AO2 SLP105 P0029 T00830078
KBFD 240331Z AUTO 35008KT 2SM +RA BR SCT005 OVC020 08/08 A2982 RMK AO2 LTG DSNT E P0013 T00830078
KBFD 240314Z AUTO 36007KT 6SM -RA BR SCT005 BKN021 OVC031 08/08 A2981 RMK AO2 LTG DSNT E AND W P0003 T00830083
KBFD 240306Z AUTO 02007KT 7SM -RA FEW012 BKN023 OVC033 08/08 A2980 RMK AO2 LTG DSNT E AND W P0002 T00830083
KBFD 240253Z AUTO VRB05G24KT 4SM +RA BR FEW013 BKN032 OVC050 08/08 A2979 RMK AO2 RAE09B46 SLP093 P0006 60016 T00830083 55026
KBFD 240153Z AUTO 00000KT 10SM -RA BKN040 OVC050 09/08 A2979 RMK AO2 SLP092 P0007 T00890078
KBFD 240053Z AUTO 22003KT 4SM RA SCT036 BKN055 OVC085 10/06 A2984 RMK AO2 RAB40 SLP110 P0003 T01000061
KBFD 232353Z AUTO 22003KT 10SM BKN047 BKN100 10/05 A2987 RMK AO2 SLP122 T01000050 10128 20094 56008
KBFD 232253Z AUTO 00000KT 10SM FEW100 10/04 A2988 RMK AO2 SLP124 T01000044
KBFD 232153Z AUTO VRB05KT 10SM FEW039 12/04 A2989 RMK AO2 SLP126 T01170044
KBFD 232053Z AUTO 25007KT 10SM BKN040 OVC110 12/04 A2990 RMK AO2 SLP129 T01220044 56004
KBFD 231953Z AUTO 27007KT 10SM BKN039 OVC110 13/05 A2990 RMK AO2 SLP128 T01280050
KBFD 231853Z AUTO 28013G20KT 10SM BKN036 BKN045 13/04 A2990 RMK AO2 SLP128 T01280044
KBFD 231753Z AUTO 27012G18KT 10SM SCT030 BKN041 12/05 A2991 RMK AO2 SLP133 T01170050 10117 20044 58005
KBFD 231653Z AUTO 28008G20KT 10SM FEW026 OVC038 10/04 A2992 RMK AO2 SLP139 T01000044
KBFD 231627Z AUTO 27013G20KT 10SM FEW024 BKN033 OVC040 09/04 A2993 RMK AO2 T00940044
KBFD 231553Z AUTO 28012G21KT 10SM BKN025 BKN032 OVC044 09/04 A2993 RMK AO2 SLP142 T00940039
KBFD 231549Z AUTO 28012G21KT 10SM FEW021 BKN032 OVC044 09/04 A2993 RMK AO2